Mary Bennett — WDC4592 — position and weather

sailwx.info

Track history (hours):
 
Tides and Currents Weather Stations Pressure Air Temp Water Temp Dewpoint Dewpoint Depression Visibility Wind Speed Wind Dir Waves Ship Positions

Mary Bennett

Owner: Savannah Marine Services, Savannah, GA. More information available from US FCC via Universal Licensing System and Coast Guard Vessel Documentation Center.

Last reported at 2017-Jul-21 22:13 UTC. Time now 2017-Jul-22 08:33 UTC.
Position N 32°05' W 081°06'.

Length 21 m; draft 2.3 m.

Type: Tug. MMSI: 367027140.

Date/timePositionNaut miles runAvg speedWind from/ knotsBaromVisibWave heightAir tempDewpointWater temp
2017-Jul-21 22:13N 32°05' W 081°06'0 1.8
2017-Jul-21 22:00N 32°05' W 081°05'4 8.7
2017-Jul-21 21:30N 32°05' W 081°00'2 3.8
2017-Jul-21 21:00N 32°05' W 081°02'3 5.6
2017-Jul-21 20:30N 32°05' W 081°06'1 2.8
2017-Jul-21 20:00N 32°06' W 081°07'0 0.5
2017-Jul-21 19:30N 32°06' W 081°07'2 0.4
2017-Jul-21 15:11N 32°05' W 081°06'0 0.1
2017-Jul-21 15:00N 32°05' W 081°06'3 5.3
2017-Jul-21 14:30N 32°07' W 081°08'0 0.9
2017-Jul-21 14:00N 32°07' W 081°07'2 4.4
2017-Jul-21 13:30N 32°05' W 081°06'0 0.0
2017-Jul-20 21:12N 32°05' W 081°06'1 5.7
2017-Jul-20 20:59N 32°05' W 081°04'4 7.5
2017-Jul-20 20:30N 32°05' W 081°00'1 1.3
2017-Jul-20 20:00N 32°05' W 081°01'4 7.6
2017-Jul-20 19:31N 32°05' W 081°05'0 0.0
2017-Jul-20 11:09N 32°05' W 081°06'0 0.0
2017-Jul-20 11:00N 32°05' W 081°06'0 0.4
2017-Jul-20 10:30N 32°05' W 081°06'2 4.3
2017-Jul-20 10:00N 32°07' W 081°08'0 0.2
2017-Jul-20 09:30N 32°07' W 081°08'0 0.2
2017-Jul-20 09:00N 32°07' W 081°08'0 0.1
2017-Jul-20 08:30N 32°07' W 081°08'0 0.1
2017-Jul-20 08:00N 32°07' W 081°08'0 0.5
2017-Jul-20 07:30N 32°07' W 081°08'0 0.1
2017-Jul-20 07:00N 32°07' W 081°08'0 0.4
2017-Jul-20 06:30N 32°07' W 081°08'0 0.5
2017-Jul-20 06:00N 32°07' W 081°08'0 0.5
2017-Jul-20 05:30N 32°07' W 081°08'0 0.4
2017-Jul-20 05:00N 32°07' W 081°08'0 0.3
2017-Jul-20 04:30N 32°07' W 081°08'0 0.0
2017-Jul-20 04:00N 32°07' W 081°08'0 0.1
2017-Jul-20 03:30N 32°07' W 081°08'0 0.0
2017-Jul-20 03:00N 32°07' W 081°08'0 0.5
2017-Jul-20 02:30N 32°07' W 081°08'0 0.5
2017-Jul-20 02:00N 32°07' W 081°08'0 0.0
2017-Jul-20 01:30N 32°07' W 081°08'0 0.0
2017-Jul-20 01:00N 32°07' W 081°08'0 0.0
2017-Jul-20 00:30N 32°07' W 081°08'0 0.0
2017-Jul-20 00:00N 32°07' W 081°08'0 0.4
2017-Jul-19 23:30N 32°07' W 081°08'0 0.4
2017-Jul-19 23:00N 32°07' W 081°08'0 0.1
2017-Jul-19 22:30N 32°07' W 081°08'0 0.1
2017-Jul-19 22:00N 32°07' W 081°08'3 5.7
2017-Jul-19 21:30N 32°05' W 081°05'4 8.5
2017-Jul-19 21:00N 32°05' W 081°00'3 6.3
2017-Jul-19 20:30N 32°05' W 081°04'4 7.7
2017-Jul-19 20:00N 32°07' W 081°08'0 0.1
2017-Jul-19 19:30N 32°07' W 081°08'0 0.4
2017-Jul-19 19:00N 32°07' W 081°08'0 0.4
2017-Jul-19 18:30N 32°07' W 081°08'0 0.5
2017-Jul-19 18:00N 32°07' W 081°08'0 0.4
2017-Jul-19 17:30N 32°07' W 081°08'0 0.4
2017-Jul-19 17:00N 32°07' W 081°08'0 0.5
2017-Jul-19 16:30N 32°07' W 081°08'0 0.5
2017-Jul-19 16:00N 32°07' W 081°08'0 0.3
2017-Jul-19 15:30N 32°07' W 081°08'0 0.1
2017-Jul-19 15:00N 32°07' W 081°08'0 0.0
2017-Jul-19 14:30N 32°07' W 081°08'0 0.0
2017-Jul-19 14:00N 32°07' W 081°08'0 0.5
2017-Jul-19 13:30N 32°07' W 081°08'0 0.3
2017-Jul-19 13:00N 32°07' W 081°08'0 0.0
2017-Jul-19 03:00N 32°07' W 081°08'0 0.1
2017-Jul-19 02:30N 32°07' W 081°08'0 0.1
2017-Jul-19 02:00N 32°07' W 081°08'0 0.2
2017-Jul-19 01:30N 32°07' W 081°08'0 0.3
2017-Jul-19 01:00N 32°07' W 081°08'0 0.3
2017-Jul-19 00:31N 32°07' W 081°08'0 0.3
2017-Jul-19 00:01N 32°07' W 081°08'0 0.2
2017-Jul-18 23:31N 32°07' W 081°08'0 0.2
2017-Jul-18 23:00N 32°07' W 081°08'0 0.3
2017-Jul-18 22:30N 32°07' W 081°08'4 7.6
2017-Jul-18 22:00N 32°05' W 081°04'3 6.3
2017-Jul-18 21:31N 32°05' W 081°00'0 0.8
2017-Jul-18 21:01N 32°05' W 081°01'4 7.0
2017-Jul-18 20:30N 32°05' W 081°05'3 6.5
2017-Jul-18 20:00N 32°07' W 081°08'0 0.1
2017-Jul-18 19:30N 32°07' W 081°08'0 0.3
2017-Jul-18 19:01N 32°07' W 081°08'0 0.0
2017-Jul-18 18:31N 32°07' W 081°08'0 0.3
2017-Jul-18 18:00N 32°07' W 081°08'0 0.1
2017-Jul-18 17:30N 32°07' W 081°08'0 0.2
2017-Jul-18 17:01N 32°07' W 081°08'0 0.0
2017-Jul-18 16:30N 32°07' W 081°08'0 0.2
2017-Jul-18 16:00N 32°07' W 081°08'0 0.4
2017-Jul-18 15:30N 32°07' W 081°08'0 0.1
2017-Jul-18 15:01N 32°07' W 081°08'0 0.1
2017-Jul-18 14:00N 32°07' W 081°08'0 0.1
2017-Jul-18 13:31N 32°07' W 081°08'0 0.2
2017-Jul-18 13:01N 32°07' W 081°08'  
2017-Jul-15 04:58N 32°05' W 081°06'0 0.0
2017-Jul-15 04:30N 32°05' W 081°06'0 0.0
2017-Jul-15 04:00N 32°05' W 081°06'0 0.0
2017-Jul-15 03:30N 32°05' W 081°06'2 4.6
2017-Jul-15 03:00N 32°07' W 081°08'0 0.0
2017-Jul-15 02:30N 32°07' W 081°08'0 0.2
2017-Jul-15 02:00N 32°07' W 081°08'0 0.2
2017-Jul-15 01:30N 32°07' W 081°08'0 0.0
2017-Jul-15 01:00N 32°07' W 081°08'0 0.0
2017-Jul-15 00:30N 32°07' W 081°08'0 0.1
2017-Jul-15 00:00N 32°07' W 081°08'0 0.0
2017-Jul-14 23:30N 32°07' W 081°08'0 0.1
2017-Jul-14 23:00N 32°07' W 081°08'0 0.1
2017-Jul-14 22:30N 32°07' W 081°08'0 0.0
2017-Jul-14 22:00N 32°07' W 081°08'0 0.0
2017-Jul-14 21:30N 32°07' W 081°08'0 0.3
2017-Jul-14 21:00N 32°07' W 081°08'0 0.4
2017-Jul-14 20:30N 32°07' W 081°07'0 0.2
2017-Jul-14 20:00N 32°07' W 081°08'0 0.1
2017-Jul-14 19:30N 32°07' W 081°08'0 0.2
2017-Jul-14 19:00N 32°07' W 081°07'0 0.3
2017-Jul-14 18:30N 32°07' W 081°08'0 0.4
2017-Jul-14 18:00N 32°07' W 081°07'0 0.3
2017-Jul-14 17:30N 32°07' W 081°08'2 4.5
2017-Jul-14 17:00N 32°05' W 081°06'4 7.4
2017-Jul-14 16:30N 32°05' W 081°01'1 2.1
2017-Jul-14 16:00N 32°05' W 081°02'4 7.5
2017-Jul-14 15:30N 32°06' W 081°07'1 2.2
2017-Jul-14 15:00N 32°07' W 081°08'0 0.0
2017-Jul-14 14:30N 32°07' W 081°08'0 0.3
2017-Jul-14 14:00N 32°07' W 081°08'0 0.2
2017-Jul-14 13:30N 32°07' W 081°08'0 0.0
2017-Jul-14 13:00N 32°07' W 081°08'0 0.4
2017-Jul-14 12:30N 32°07' W 081°07'0 0.4
2017-Jul-14 12:00N 32°07' W 081°08'0 0.3
2017-Jul-14 11:30N 32°07' W 081°08'0 0.0
2017-Jul-14 11:00N 32°07' W 081°08'0 0.1
2017-Jul-14 10:30N 32°07' W 081°08'0 0.3
2017-Jul-14 10:00N 32°07' W 081°08'0 0.1
2017-Jul-14 09:30N 32°07' W 081°08'0 0.0
2017-Jul-14 09:00N 32°07' W 081°08'0 0.1
2017-Jul-14 08:30N 32°07' W 081°08'0 0.1
2017-Jul-14 08:00N 32°07' W 081°08'0 0.0
2017-Jul-14 07:30N 32°07' W 081°08'0 0.1
2017-Jul-14 07:00N 32°07' W 081°08'0 0.1
2017-Jul-14 06:30N 32°07' W 081°07'0 0.2
2017-Jul-14 06:00N 32°07' W 081°08'0 0.2
2017-Jul-14 05:30N 32°07' W 081°08'0 0.2
2017-Jul-14 05:00N 32°07' W 081°08'0 0.1
2017-Jul-14 04:30N 32°07' W 081°08'0 0.2
2017-Jul-14 04:00N 32°07' W 081°08'0 0.2
2017-Jul-14 03:30N 32°07' W 081°08'0 0.1
2017-Jul-14 03:00N 32°07' W 081°08'0 0.0
2017-Jul-14 02:30N 32°07' W 081°08'0 0.1
2017-Jul-14 02:00N 32°07' W 081°08'0 0.2
2017-Jul-14 01:30N 32°07' W 081°07'0 0.1
2017-Jul-14 01:00N 32°07' W 081°08'0 0.1
2017-Jul-14 00:30N 32°07' W 081°08'0 0.0
2017-Jul-14 00:00N 32°07' W 081°08'0 0.2
2017-Jul-13 23:30N 32°07' W 081°08'0 0.2
2017-Jul-13 23:00N 32°07' W 081°08'0 0.1
2017-Jul-13 22:30N 32°07' W 081°08'0 0.2
2017-Jul-13 22:00N 32°07' W 081°08'0 0.1
2017-Jul-13 21:30N 32°07' W 081°08'0 0.3
2017-Jul-13 21:00N 32°07' W 081°07'0 0.2
2017-Jul-13 20:30N 32°07' W 081°08'0 0.0
2017-Jul-13 20:00N 32°07' W 081°08'0 0.2
2017-Jul-13 19:30N 32°07' W 081°07'1 2.5
2017-Jul-13 19:00N 32°06' W 081°06'2 3.8
2017-Jul-13 18:30N 32°05' W 081°05'3 6.5
2017-Jul-13 18:00N 32°05' W 081°01'1 1.1
2017-Jul-13 17:30N 32°05' W 081°00'2 3.0
2017-Jul-13 17:00N 32°05' W 081°02'3 5.1
2017-Jul-13 16:30N 32°05' W 081°05'3 5.3
2017-Jul-13 16:00N 32°07' W 081°07'1 1.2
2017-Jul-13 15:30N 32°07' W 081°08'0 0.0
2017-Jul-13 15:00N 32°07' W 081°08'2 3.3
2017-Jul-13 14:30N 32°06' W 081°06'0 0.8
2017-Jul-13 14:00N 32°06' W 081°07'1 1.9
2017-Jul-13 13:30N 32°07' W 081°08'0 0.2
2017-Jul-13 13:00N 32°07' W 081°07'0 0.1
2017-Jul-13 12:30N 32°07' W 081°08'0 0.3
2017-Jul-13 12:00N 32°07' W 081°08'0 0.4
2017-Jul-13 11:30N 32°07' W 081°07'0 0.1
2017-Jul-13 11:00N 32°07' W 081°07'0 0.1
2017-Jul-13 10:30N 32°07' W 081°08'0 0.1
2017-Jul-13 10:00N 32°07' W 081°08'0 0.3
2017-Jul-13 09:30N 32°07' W 081°07'0 0.4
2017-Jul-13 09:00N 32°07' W 081°08'0 0.0
2017-Jul-13 08:30N 32°07' W 081°08'0 0.0
2017-Jul-13 08:00N 32°07' W 081°08'0 0.0
2017-Jul-13 07:30N 32°07' W 081°08'0 0.0
2017-Jul-13 07:00N 32°07' W 081°08'0 0.0
2017-Jul-13 06:30N 32°07' W 081°08'0 0.0
2017-Jul-13 06:00N 32°07' W 081°08'0 0.0
2017-Jul-13 05:30N 32°07' W 081°08'0 0.0
2017-Jul-13 05:00N 32°07' W 081°08'0 0.0
2017-Jul-13 04:30N 32°07' W 081°08'2 4.6
2017-Jul-13 04:00N 32°05' W 081°06'0 0.0
2017-Jul-13 03:30N 32°05' W 081°06'1 1.2
2017-Jul-13 03:00N 32°05' W 081°05'4 7.7
2017-Jul-13 02:30N 32°05' W 081°01'2 4.2
2017-Jul-13 02:00N 32°05' W 081°03'2 0.2
2017-Jul-12 15:46N 32°05' W 081°06'1 3.1
2017-Jul-12 15:30N 32°06' W 081°06'0 0.2
2017-Jul-12 15:00N 32°06' W 081°06'0 0.0
2017-Jul-12 14:00N 32°06' W 081°06'0 0.0
2017-Jul-12 13:30N 32°06' W 081°06'0 0.1
2017-Jul-12 13:00N 32°06' W 081°06'0 0.2
2017-Jul-12 12:30N 32°06' W 081°07'0 0.0
2017-Jul-12 12:00N 32°06' W 081°07'  
Track history (hours):
 
Tides and Currents Weather Stations Pressure Air Temp Water Temp Dewpoint Dewpoint Depression Visibility Wind Speed Wind Dir Waves Ship Positions

Mary Bennett

Owner: Savannah Marine Services, Savannah, GA. More information available from US FCC via Universal Licensing System and Coast Guard Vessel Documentation Center.

Last reported at 2017-Jul-21 22:13 UTC. Time now 2017-Jul-22 08:33 UTC.
Position N 32°05' W 081°06'.

Length 21 m; draft 2.3 m.

Type: Tug. MMSI: 367027140.

Date/timePositionNaut miles runAvg speedWind from/ knotsBaromVisibWave heightAir tempDewpointWater temp
2017-Jul-21 22:13N 32°05' W 081°06'0 1.8
2017-Jul-21 22:00N 32°05' W 081°05'4 8.7
2017-Jul-21 21:30N 32°05' W 081°00'2 3.8
2017-Jul-21 21:00N 32°05' W 081°02'3 5.6
2017-Jul-21 20:30N 32°05' W 081°06'1 2.8
2017-Jul-21 20:00N 32°06' W 081°07'0 0.5
2017-Jul-21 19:30N 32°06' W 081°07'2 0.4
2017-Jul-21 15:11N 32°05' W 081°06'0 0.1
2017-Jul-21 15:00N 32°05' W 081°06'3 5.3
2017-Jul-21 14:30N 32°07' W 081°08'0 0.9
2017-Jul-21 14:00N 32°07' W 081°07'2 4.4
2017-Jul-21 13:30N 32°05' W 081°06'0 0.0
2017-Jul-20 21:12N 32°05' W 081°06'1 5.7
2017-Jul-20 20:59N 32°05' W 081°04'4 7.5
2017-Jul-20 20:30N 32°05' W 081°00'1 1.3
2017-Jul-20 20:00N 32°05' W 081°01'4 7.6
2017-Jul-20 19:31N 32°05' W 081°05'0 0.0
2017-Jul-20 11:09N 32°05' W 081°06'0 0.0
2017-Jul-20 11:00N 32°05' W 081°06'0 0.4
2017-Jul-20 10:30N 32°05' W 081°06'2 4.3
2017-Jul-20 10:00N 32°07' W 081°08'0 0.2
2017-Jul-20 09:30N 32°07' W 081°08'0 0.2
2017-Jul-20 09:00N 32°07' W 081°08'0 0.1
2017-Jul-20 08:30N 32°07' W 081°08'0 0.1
2017-Jul-20 08:00N 32°07' W 081°08'0 0.5
2017-Jul-20 07:30N 32°07' W 081°08'0 0.1
2017-Jul-20 07:00N 32°07' W 081°08'0 0.4
2017-Jul-20 06:30N 32°07' W 081°08'0 0.5
2017-Jul-20 06:00N 32°07' W 081°08'0 0.5
2017-Jul-20 05:30N 32°07' W 081°08'0 0.4
2017-Jul-20 05:00N 32°07' W 081°08'0 0.3
2017-Jul-20 04:30N 32°07' W 081°08'0 0.0
2017-Jul-20 04:00N 32°07' W 081°08'0 0.1
2017-Jul-20 03:30N 32°07' W 081°08'0 0.0
2017-Jul-20 03:00N 32°07' W 081°08'0 0.5
2017-Jul-20 02:30N 32°07' W 081°08'0 0.5
2017-Jul-20 02:00N 32°07' W 081°08'0 0.0
2017-Jul-20 01:30N 32°07' W 081°08'0 0.0
2017-Jul-20 01:00N 32°07' W 081°08'0 0.0
2017-Jul-20 00:30N 32°07' W 081°08'0 0.0
2017-Jul-20 00:00N 32°07' W 081°08'0 0.4
2017-Jul-19 23:30N 32°07' W 081°08'0 0.4
2017-Jul-19 23:00N 32°07' W 081°08'0 0.1
2017-Jul-19 22:30N 32°07' W 081°08'0 0.1
2017-Jul-19 22:00N 32°07' W 081°08'3 5.7
2017-Jul-19 21:30N 32°05' W 081°05'4 8.5
2017-Jul-19 21:00N 32°05' W 081°00'3 6.3
2017-Jul-19 20:30N 32°05' W 081°04'4 7.7
2017-Jul-19 20:00N 32°07' W 081°08'0 0.1
2017-Jul-19 19:30N 32°07' W 081°08'0 0.4
2017-Jul-19 19:00N 32°07' W 081°08'0 0.4
2017-Jul-19 18:30N 32°07' W 081°08'0 0.5
2017-Jul-19 18:00N 32°07' W 081°08'0 0.4
2017-Jul-19 17:30N 32°07' W 081°08'0 0.4
2017-Jul-19 17:00N 32°07' W 081°08'0 0.5
2017-Jul-19 16:30N 32°07' W 081°08'0 0.5
2017-Jul-19 16:00N 32°07' W 081°08'0 0.3
2017-Jul-19 15:30N 32°07' W 081°08'0 0.1
2017-Jul-19 15:00N 32°07' W 081°08'0 0.0
2017-Jul-19 14:30N 32°07' W 081°08'0 0.0
2017-Jul-19 14:00N 32°07' W 081°08'0 0.5
2017-Jul-19 13:30N 32°07' W 081°08'0 0.3
2017-Jul-19 13:00N 32°07' W 081°08'0 0.0
2017-Jul-19 03:00N 32°07' W 081°08'0 0.1
2017-Jul-19 02:30N 32°07' W 081°08'0 0.1
2017-Jul-19 02:00N 32°07' W 081°08'0 0.2
2017-Jul-19 01:30N 32°07' W 081°08'0 0.3
2017-Jul-19 01:00N 32°07' W 081°08'0 0.3
2017-Jul-19 00:31N 32°07' W 081°08'0 0.3
2017-Jul-19 00:01N 32°07' W 081°08'0 0.2
2017-Jul-18 23:31N 32°07' W 081°08'0 0.2
2017-Jul-18 23:00N 32°07' W 081°08'0 0.3
2017-Jul-18 22:30N 32°07' W 081°08'4 7.6
2017-Jul-18 22:00N 32°05' W 081°04'3 6.3
2017-Jul-18 21:31N 32°05' W 081°00'0 0.8
2017-Jul-18 21:01N 32°05' W 081°01'4 7.0
2017-Jul-18 20:30N 32°05' W 081°05'3 6.5
2017-Jul-18 20:00N 32°07' W 081°08'0 0.1
2017-Jul-18 19:30N 32°07' W 081°08'0 0.3
2017-Jul-18 19:01N 32°07' W 081°08'0 0.0
2017-Jul-18 18:31N 32°07' W 081°08'0 0.3
2017-Jul-18 18:00N 32°07' W 081°08'0 0.1
2017-Jul-18 17:30N 32°07' W 081°08'0 0.2
2017-Jul-18 17:01N 32°07' W 081°08'0 0.0
2017-Jul-18 16:30N 32°07' W 081°08'0 0.2
2017-Jul-18 16:00N 32°07' W 081°08'0 0.4
2017-Jul-18 15:30N 32°07' W 081°08'0 0.1
2017-Jul-18 15:01N 32°07' W 081°08'0 0.1
2017-Jul-18 14:00N 32°07' W 081°08'0 0.1
2017-Jul-18 13:31N 32°07' W 081°08'0 0.2
2017-Jul-18 13:01N 32°07' W 081°08'  
2017-Jul-15 04:58N 32°05' W 081°06'0 0.0
2017-Jul-15 04:30N 32°05' W 081°06'0 0.0
2017-Jul-15 04:00N 32°05' W 081°06'0 0.0
2017-Jul-15 03:30N 32°05' W 081°06'2 4.6
2017-Jul-15 03:00N 32°07' W 081°08'0 0.0
2017-Jul-15 02:30N 32°07' W 081°08'0 0.2
2017-Jul-15 02:00N 32°07' W 081°08'0 0.2
2017-Jul-15 01:30N 32°07' W 081°08'0 0.0
2017-Jul-15 01:00N 32°07' W 081°08'0 0.0
2017-Jul-15 00:30N 32°07' W 081°08'0 0.1
2017-Jul-15 00:00N 32°07' W 081°08'0 0.0
2017-Jul-14 23:30N 32°07' W 081°08'0 0.1
2017-Jul-14 23:00N 32°07' W 081°08'0 0.1
2017-Jul-14 22:30N 32°07' W 081°08'0 0.0
2017-Jul-14 22:00N 32°07' W 081°08'0 0.0
2017-Jul-14 21:30N 32°07' W 081°08'0 0.3
2017-Jul-14 21:00N 32°07' W 081°08'0 0.4
2017-Jul-14 20:30N 32°07' W 081°07'0 0.2
2017-Jul-14 20:00N 32°07' W 081°08'0 0.1
2017-Jul-14 19:30N 32°07' W 081°08'0 0.2
2017-Jul-14 19:00N 32°07' W 081°07'0 0.3
2017-Jul-14 18:30N 32°07' W 081°08'0 0.4
2017-Jul-14 18:00N 32°07' W 081°07'0 0.3
2017-Jul-14 17:30N 32°07' W 081°08'2 4.5
2017-Jul-14 17:00N 32°05' W 081°06'4 7.4
2017-Jul-14 16:30N 32°05' W 081°01'1 2.1
2017-Jul-14 16:00N 32°05' W 081°02'4 7.5
2017-Jul-14 15:30N 32°06' W 081°07'1 2.2
2017-Jul-14 15:00N 32°07' W 081°08'0 0.0
2017-Jul-14 14:30N 32°07' W 081°08'0 0.3
2017-Jul-14 14:00N 32°07' W 081°08'0 0.2
2017-Jul-14 13:30N 32°07' W 081°08'0 0.0
2017-Jul-14 13:00N 32°07' W 081°08'0 0.4
2017-Jul-14 12:30N 32°07' W 081°07'0 0.4
2017-Jul-14 12:00N 32°07' W 081°08'0 0.3
2017-Jul-14 11:30N 32°07' W 081°08'0 0.0
2017-Jul-14 11:00N 32°07' W 081°08'0 0.1
2017-Jul-14 10:30N 32°07' W 081°08'0 0.3
2017-Jul-14 10:00N 32°07' W 081°08'0 0.1
2017-Jul-14 09:30N 32°07' W 081°08'0 0.0
2017-Jul-14 09:00N 32°07' W 081°08'0 0.1
2017-Jul-14 08:30N 32°07' W 081°08'0 0.1
2017-Jul-14 08:00N 32°07' W 081°08'0 0.0
2017-Jul-14 07:30N 32°07' W 081°08'0 0.1
2017-Jul-14 07:00N 32°07' W 081°08'0 0.1
2017-Jul-14 06:30N 32°07' W 081°07'0 0.2
2017-Jul-14 06:00N 32°07' W 081°08'0 0.2
2017-Jul-14 05:30N 32°07' W 081°08'0 0.2
2017-Jul-14 05:00N 32°07' W 081°08'0 0.1
2017-Jul-14 04:30N 32°07' W 081°08'0 0.2
2017-Jul-14 04:00N 32°07' W 081°08'0 0.2
2017-Jul-14 03:30N 32°07' W 081°08'0 0.1
2017-Jul-14 03:00N 32°07' W 081°08'0 0.0
2017-Jul-14 02:30N 32°07' W 081°08'0 0.1
2017-Jul-14 02:00N 32°07' W 081°08'0 0.2
2017-Jul-14 01:30N 32°07' W 081°07'0 0.1
2017-Jul-14 01:00N 32°07' W 081°08'0 0.1
2017-Jul-14 00:30N 32°07' W 081°08'0 0.0
2017-Jul-14 00:00N 32°07' W 081°08'0 0.2
2017-Jul-13 23:30N 32°07' W 081°08'0 0.2
2017-Jul-13 23:00N 32°07' W 081°08'0 0.1
2017-Jul-13 22:30N 32°07' W 081°08'0 0.2
2017-Jul-13 22:00N 32°07' W 081°08'0 0.1
2017-Jul-13 21:30N 32°07' W 081°08'0 0.3
2017-Jul-13 21:00N 32°07' W 081°07'0 0.2
2017-Jul-13 20:30N 32°07' W 081°08'0 0.0
2017-Jul-13 20:00N 32°07' W 081°08'0 0.2
2017-Jul-13 19:30N 32°07' W 081°07'1 2.5
2017-Jul-13 19:00N 32°06' W 081°06'2 3.8
2017-Jul-13 18:30N 32°05' W 081°05'3 6.5
2017-Jul-13 18:00N 32°05' W 081°01'1 1.1
2017-Jul-13 17:30N 32°05' W 081°00'2 3.0
2017-Jul-13 17:00N 32°05' W 081°02'3 5.1
2017-Jul-13 16:30N 32°05' W 081°05'3 5.3
2017-Jul-13 16:00N 32°07' W 081°07'1 1.2
2017-Jul-13 15:30N 32°07' W 081°08'0 0.0
2017-Jul-13 15:00N 32°07' W 081°08'2 3.3
2017-Jul-13 14:30N 32°06' W 081°06'0 0.8
2017-Jul-13 14:00N 32°06' W 081°07'1 1.9
2017-Jul-13 13:30N 32°07' W 081°08'0 0.2
2017-Jul-13 13:00N 32°07' W 081°07'0 0.1
2017-Jul-13 12:30N 32°07' W 081°08'0 0.3
2017-Jul-13 12:00N 32°07' W 081°08'0 0.4
2017-Jul-13 11:30N 32°07' W 081°07'0 0.1
2017-Jul-13 11:00N 32°07' W 081°07'0 0.1
2017-Jul-13 10:30N 32°07' W 081°08'0 0.1
2017-Jul-13 10:00N 32°07' W 081°08'0 0.3
2017-Jul-13 09:30N 32°07' W 081°07'0 0.4
2017-Jul-13 09:00N 32°07' W 081°08'0 0.0
2017-Jul-13 08:30N 32°07' W 081°08'0 0.0
2017-Jul-13 08:00N 32°07' W 081°08'0 0.0
2017-Jul-13 07:30N 32°07' W 081°08'0 0.0
2017-Jul-13 07:00N 32°07' W 081°08'0 0.0
2017-Jul-13 06:30N 32°07' W 081°08'0 0.0
2017-Jul-13 06:00N 32°07' W 081°08'0 0.0
2017-Jul-13 05:30N 32°07' W 081°08'0 0.0
2017-Jul-13 05:00N 32°07' W 081°08'0 0.0
2017-Jul-13 04:30N 32°07' W 081°08'2 4.6
2017-Jul-13 04:00N 32°05' W 081°06'0 0.0
2017-Jul-13 03:30N 32°05' W 081°06'1 1.2
2017-Jul-13 03:00N 32°05' W 081°05'4 7.7
2017-Jul-13 02:30N 32°05' W 081°01'2 4.2
2017-Jul-13 02:00N 32°05' W 081°03'2 0.2
2017-Jul-12 15:46N 32°05' W 081°06'1 3.1
2017-Jul-12 15:30N 32°06' W 081°06'0 0.2
2017-Jul-12 15:00N 32°06' W 081°06'0 0.0
2017-Jul-12 14:00N 32°06' W 081°06'0 0.0
2017-Jul-12 13:30N 32°06' W 081°06'0 0.1
2017-Jul-12 13:00N 32°06' W 081°06'0 0.2
2017-Jul-12 12:30N 32°06' W 081°07'0 0.0
2017-Jul-12 12:00N 32°06' W 081°07'  

Dump ship's entire track history